Enterprise — WYB2848 — position and weather

sailwx.info

Track history (hours):
 
Tides and Currents Weather Stations Pressure Air Temp Water Temp Dewpoint Dewpoint Depression Visibility Wind Speed Wind Dir Waves Ship Positions

Enterprise

Owner: SEAL BEACH ANGLERS, INC, LONG BEACH, CA. More information available from US FCC via Universal Licensing System and Coast Guard Vessel Documentation Center.

Last reported at 2018-Feb-21 23:54 UTC. Time now 2018-Feb-22 06:54 UTC.
Position N 33°46' W 118°12'.

Type: Ship. MMSI: 367095040.

Date/timePositionNaut miles runAvg speedWind from/ knotsBaromVisibWave heightAir tempDewpointWater temp
2018-Feb-21 23:54N 33°46' W 118°12'2 5.6
2018-Feb-21 23:30N 33°44' W 118°11'2 4.2
2018-Feb-21 23:00N 33°42' W 118°10'0 0.0
2018-Feb-21 22:30N 33°42' W 118°10'1 1.3
2018-Feb-21 22:00N 33°41' W 118°09'4 8.3
2018-Feb-21 21:30N 33°39' W 118°06'0 0.0
2018-Feb-21 21:00N 33°39' W 118°06'0 0.0
2018-Feb-21 20:30N 33°39' W 118°06'0 0.5
2018-Feb-21 20:00N 33°39' W 118°06'0 0.1
2018-Feb-21 19:23N 33°39' W 118°06'3 6.4
2018-Feb-21 18:58N 33°41' W 118°07'2 5.4
2018-Feb-21 18:30N 33°44' W 118°09'3 6.9
2018-Feb-21 18:00N 33°46' W 118°12'0 0.0
2018-Feb-20 19:01N 33°46' W 118°12'0 0.0
2018-Feb-20 19:00N 33°46' W 118°12'0 0.0
2018-Feb-19 17:59N 33°46' W 118°12'0 0.0
2018-Feb-19 01:51N 33°46' W 118°12'2 6.8
2018-Feb-19 01:30N 33°43' W 118°11'2 4.0
2018-Feb-19 01:00N 33°42' W 118°10'0 0.0
2018-Feb-19 00:30N 33°42' W 118°10'0 0.0
2018-Feb-19 00:00N 33°42' W 118°10'0 0.0
2018-Feb-18 23:30N 33°42' W 118°10'0 0.0
2018-Feb-18 23:00N 33°42' W 118°10'0 0.0
2018-Feb-18 22:30N 33°42' W 118°10'0 0.0
2018-Feb-18 22:00N 33°42' W 118°10'0 0.0
2018-Feb-18 21:30N 33°42' W 118°10'1 2.7
2018-Feb-18 21:00N 33°43' W 118°11'3 6.0
2018-Feb-18 20:30N 33°46' W 118°12'2 3.8
2018-Feb-18 20:00N 33°44' W 118°11'4 8.1
2018-Feb-18 19:30N 33°41' W 118°08'2 5.0
2018-Feb-18 19:00N 33°39' W 118°06'0 0.0
2018-Feb-18 18:30N 33°39' W 118°06'1 1.3
2018-Feb-18 17:53N 33°39' W 118°05'1 1.7
2018-Feb-18 17:30N 33°39' W 118°06'1 1.4
2018-Feb-18 17:00N 33°39' W 118°07'0 0.1
2018-Feb-18 16:30N 33°39' W 118°07'0 0.0
2018-Feb-18 15:58N 33°39' W 118°07'1 1.4
2018-Feb-18 15:27N 33°40' W 118°07'4 8.2
2018-Feb-18 15:00N 33°44' W 118°08'3 7.1
2018-Feb-18 14:30N 33°46' W 118°12'0 0.0
2018-Feb-18 02:15N 33°46' W 118°12'2 6.7
2018-Feb-18 02:01N 33°44' W 118°11'3 5.2
2018-Feb-18 01:30N 33°42' W 118°10'0 0.0
2018-Feb-18 01:00N 33°42' W 118°10'1 1.1
2018-Feb-18 00:31N 33°41' W 118°10'0 0.0
2018-Feb-18 00:01N 33°41' W 118°10'0 0.0
2018-Feb-17 23:30N 33°41' W 118°10'1 2.0
2018-Feb-17 23:01N 33°42' W 118°09'0 0.0
2018-Feb-17 22:30N 33°42' W 118°09'0 0.0
2018-Feb-17 22:01N 33°42' W 118°09'0 0.0
2018-Feb-17 21:30N 33°42' W 118°09'2 4.4
2018-Feb-17 21:01N 33°43' W 118°11'3 5.0
2018-Feb-17 20:28N 33°46' W 118°12'2 4.1
2018-Feb-17 20:00N 33°44' W 118°11'4 8.3
2018-Feb-17 19:31N 33°41' W 118°08'2 3.3
2018-Feb-17 19:00N 33°39' W 118°07'0 0.0
2018-Feb-17 18:30N 33°39' W 118°07'0 0.0
2018-Feb-17 18:00N 33°39' W 118°07'0 0.7
2018-Feb-17 17:28N 33°39' W 118°07'2 3.1
2018-Feb-17 16:56N 33°39' W 118°09'1 1.9
2018-Feb-17 16:30N 33°39' W 118°10'0 0.0
2018-Feb-17 16:00N 33°39' W 118°10'1 1.4
2018-Feb-17 15:31N 33°38' W 118°10'4 8.1
2018-Feb-17 15:01N 33°42' W 118°11'3 6.4
2018-Feb-17 14:29N 33°46' W 118°12'0 0.0
2018-Feb-17 00:45N 33°46' W 118°12'1 4.4
2018-Feb-17 00:30N 33°45' W 118°11'4 8.1
2018-Feb-16 23:59N 33°41' W 118°09'1 2.5
2018-Feb-16 23:30N 33°40' W 118°09'0 0.0
2018-Feb-16 23:00N 33°40' W 118°09'0 0.0
2018-Feb-16 22:30N 33°40' W 118°09'1 1.2
2018-Feb-16 22:00N 33°39' W 118°09'0 0.0
2018-Feb-16 21:30N 33°39' W 118°09'0 0.0
2018-Feb-16 21:00N 33°39' W 118°09'1 2.6
2018-Feb-16 20:30N 33°41' W 118°09'0 0.8
2018-Feb-16 20:00N 33°41' W 118°10'0 0.6
2018-Feb-16 19:29N 33°41' W 118°10'0 0.0
2018-Feb-16 19:00N 33°41' W 118°10'3 5.3
2018-Feb-16 18:29N 33°44' W 118°09'3 5.6
2018-Feb-16 18:00N 33°46' W 118°12'0 0.0
2018-Feb-16 00:36N 33°46' W 118°12'0 3.1
2018-Feb-16 00:30N 33°45' W 118°12'4 7.0
2018-Feb-16 00:00N 33°42' W 118°09'1 1.8
2018-Feb-15 23:30N 33°42' W 118°09'0 0.1
2018-Feb-15 23:00N 33°42' W 118°09'0 0.0
2018-Feb-15 22:30N 33°42' W 118°09'3 6.9
2018-Feb-15 22:00N 33°39' W 118°11'1 1.5
2018-Feb-15 21:30N 33°39' W 118°12'0 0.3
2018-Feb-15 21:00N 33°40' W 118°12'2 4.5
2018-Feb-15 20:29N 33°41' W 118°10'0 0.0
2018-Feb-15 19:44N 33°41' W 118°10'0 0.0
2018-Feb-15 19:09N 33°41' W 118°10'1 7.6
2018-Feb-15 19:00N 33°42' W 118°09'1 2.9
2018-Feb-15 18:30N 33°44' W 118°09'3 7.0
2018-Feb-15 18:00N 33°46' W 118°12'0 0.0
2018-Feb-15 00:35N 33°46' W 118°12'0 3.3
2018-Feb-15 00:29N 33°45' W 118°12'4 8.1
2018-Feb-15 00:00N 33°43' W 118°08'4 7.5
2018-Feb-14 23:30N 33°40' W 118°06'0 0.0
2018-Feb-14 23:00N 33°40' W 118°06'0 0.0
2018-Feb-14 22:30N 33°40' W 118°06'0 0.0
2018-Feb-14 21:57N 33°40' W 118°06'1 1.3
2018-Feb-14 21:25N 33°39' W 118°06'0 0.2
2018-Feb-14 21:00N 33°39' W 118°06'0 0.0
2018-Feb-14 20:30N 33°39' W 118°06'2 3.1
2018-Feb-14 20:01N 33°40' W 118°07'1 1.2
2018-Feb-14 19:30N 33°41' W 118°07'2 3.2
2018-Feb-14 19:00N 33°42' W 118°08'2 4.2
2018-Feb-14 18:30N 33°44' W 118°09'3 5.0
2018-Feb-14 17:58N 33°46' W 118°12'0 0.0
2018-Feb-14 17:30N 33°46' W 118°12'0 0.0
2018-Feb-13 17:50N 33°46' W 118°12'2 6.0
2018-Feb-13 17:31N 33°44' W 118°11'4 7.7
2018-Feb-13 17:00N 33°43' W 118°16'1 1.6
2018-Feb-13 16:30N 33°44' W 118°16'2 4.8
2018-Feb-13 16:00N 33°43' W 118°14'3 5.3
2018-Feb-13 15:26N 33°46' W 118°12'0 0.0
2018-Feb-12 21:10N 33°46' W 118°12'0 0.0
2018-Feb-12 21:00N 33°46' W 118°12'0 0.0
2018-Feb-12 20:00N 33°46' W 118°12'0 0.0
2018-Feb-12 19:14N 33°46' W 118°12'0 0.0
2018-Feb-12 19:00N 33°46' W 118°12'0 0.0
2018-Feb-12 18:26N 33°46' W 118°12'0 0.0
2018-Feb-12 18:00N 33°46' W 118°12'0 0.0
2018-Feb-12 17:30N 33°46' W 118°12'0 0.0
2018-Feb-12 17:00N 33°46' W 118°12'0 0.0
2018-Feb-12 16:30N 33°46' W 118°12'0 0.0
2018-Feb-12 16:00N 33°46' W 118°12'0 0.0
2018-Feb-12 15:30N 33°46' W 118°12'0 0.0
2018-Feb-12 15:00N 33°46' W 118°12'0 0.0
2018-Feb-12 14:29N 33°46' W 118°12'0 0.0
2018-Feb-12 14:00N 33°46' W 118°12'0 0.0
2018-Feb-12 13:30N 33°46' W 118°12'0 0.0
2018-Feb-12 12:47N 33°46' W 118°12'0 0.0
2018-Feb-12 12:30N 33°46' W 118°12'0 0.0
2018-Feb-12 11:47N 33°46' W 118°12'0 0.0
2018-Feb-12 11:26N 33°46' W 118°12'0 0.0
2018-Feb-12 10:56N 33°46' W 118°12'0 0.0
2018-Feb-12 07:49N 33°46' W 118°12'0 0.0
2018-Feb-12 01:44N 33°46' W 118°12'0 0.0
2018-Feb-12 01:30N 33°46' W 118°12'0 0.0
2018-Feb-12 01:00N 33°46' W 118°12'0 0.0
2018-Feb-12 00:30N 33°46' W 118°12'0 0.0
2018-Feb-11 23:59N 33°46' W 118°12'  
Track history (hours):
 
Tides and Currents Weather Stations Pressure Air Temp Water Temp Dewpoint Dewpoint Depression Visibility Wind Speed Wind Dir Waves Ship Positions

Enterprise

Owner: SEAL BEACH ANGLERS, INC, LONG BEACH, CA. More information available from US FCC via Universal Licensing System and Coast Guard Vessel Documentation Center.

Last reported at 2018-Feb-21 23:54 UTC. Time now 2018-Feb-22 06:54 UTC.
Position N 33°46' W 118°12'.

Type: Ship. MMSI: 367095040.

Date/timePositionNaut miles runAvg speedWind from/ knotsBaromVisibWave heightAir tempDewpointWater temp
2018-Feb-21 23:54N 33°46' W 118°12'2 5.6
2018-Feb-21 23:30N 33°44' W 118°11'2 4.2
2018-Feb-21 23:00N 33°42' W 118°10'0 0.0
2018-Feb-21 22:30N 33°42' W 118°10'1 1.3
2018-Feb-21 22:00N 33°41' W 118°09'4 8.3
2018-Feb-21 21:30N 33°39' W 118°06'0 0.0
2018-Feb-21 21:00N 33°39' W 118°06'0 0.0
2018-Feb-21 20:30N 33°39' W 118°06'0 0.5
2018-Feb-21 20:00N 33°39' W 118°06'0 0.1
2018-Feb-21 19:23N 33°39' W 118°06'3 6.4
2018-Feb-21 18:58N 33°41' W 118°07'2 5.4
2018-Feb-21 18:30N 33°44' W 118°09'3 6.9
2018-Feb-21 18:00N 33°46' W 118°12'0 0.0
2018-Feb-20 19:01N 33°46' W 118°12'0 0.0
2018-Feb-20 19:00N 33°46' W 118°12'0 0.0
2018-Feb-19 17:59N 33°46' W 118°12'0 0.0
2018-Feb-19 01:51N 33°46' W 118°12'2 6.8
2018-Feb-19 01:30N 33°43' W 118°11'2 4.0
2018-Feb-19 01:00N 33°42' W 118°10'0 0.0
2018-Feb-19 00:30N 33°42' W 118°10'0 0.0
2018-Feb-19 00:00N 33°42' W 118°10'0 0.0
2018-Feb-18 23:30N 33°42' W 118°10'0 0.0
2018-Feb-18 23:00N 33°42' W 118°10'0 0.0
2018-Feb-18 22:30N 33°42' W 118°10'0 0.0
2018-Feb-18 22:00N 33°42' W 118°10'0 0.0
2018-Feb-18 21:30N 33°42' W 118°10'1 2.7
2018-Feb-18 21:00N 33°43' W 118°11'3 6.0
2018-Feb-18 20:30N 33°46' W 118°12'2 3.8
2018-Feb-18 20:00N 33°44' W 118°11'4 8.1
2018-Feb-18 19:30N 33°41' W 118°08'2 5.0
2018-Feb-18 19:00N 33°39' W 118°06'0 0.0
2018-Feb-18 18:30N 33°39' W 118°06'1 1.3
2018-Feb-18 17:53N 33°39' W 118°05'1 1.7
2018-Feb-18 17:30N 33°39' W 118°06'1 1.4
2018-Feb-18 17:00N 33°39' W 118°07'0 0.1
2018-Feb-18 16:30N 33°39' W 118°07'0 0.0
2018-Feb-18 15:58N 33°39' W 118°07'1 1.4
2018-Feb-18 15:27N 33°40' W 118°07'4 8.2
2018-Feb-18 15:00N 33°44' W 118°08'3 7.1
2018-Feb-18 14:30N 33°46' W 118°12'0 0.0
2018-Feb-18 02:15N 33°46' W 118°12'2 6.7
2018-Feb-18 02:01N 33°44' W 118°11'3 5.2
2018-Feb-18 01:30N 33°42' W 118°10'0 0.0
2018-Feb-18 01:00N 33°42' W 118°10'1 1.1
2018-Feb-18 00:31N 33°41' W 118°10'0 0.0
2018-Feb-18 00:01N 33°41' W 118°10'0 0.0
2018-Feb-17 23:30N 33°41' W 118°10'1 2.0
2018-Feb-17 23:01N 33°42' W 118°09'0 0.0
2018-Feb-17 22:30N 33°42' W 118°09'0 0.0
2018-Feb-17 22:01N 33°42' W 118°09'0 0.0
2018-Feb-17 21:30N 33°42' W 118°09'2 4.4
2018-Feb-17 21:01N 33°43' W 118°11'3 5.0
2018-Feb-17 20:28N 33°46' W 118°12'2 4.1
2018-Feb-17 20:00N 33°44' W 118°11'4 8.3
2018-Feb-17 19:31N 33°41' W 118°08'2 3.3
2018-Feb-17 19:00N 33°39' W 118°07'0 0.0
2018-Feb-17 18:30N 33°39' W 118°07'0 0.0
2018-Feb-17 18:00N 33°39' W 118°07'0 0.7
2018-Feb-17 17:28N 33°39' W 118°07'2 3.1
2018-Feb-17 16:56N 33°39' W 118°09'1 1.9
2018-Feb-17 16:30N 33°39' W 118°10'0 0.0
2018-Feb-17 16:00N 33°39' W 118°10'1 1.4
2018-Feb-17 15:31N 33°38' W 118°10'4 8.1
2018-Feb-17 15:01N 33°42' W 118°11'3 6.4
2018-Feb-17 14:29N 33°46' W 118°12'0 0.0
2018-Feb-17 00:45N 33°46' W 118°12'1 4.4
2018-Feb-17 00:30N 33°45' W 118°11'4 8.1
2018-Feb-16 23:59N 33°41' W 118°09'1 2.5
2018-Feb-16 23:30N 33°40' W 118°09'0 0.0
2018-Feb-16 23:00N 33°40' W 118°09'0 0.0
2018-Feb-16 22:30N 33°40' W 118°09'1 1.2
2018-Feb-16 22:00N 33°39' W 118°09'0 0.0
2018-Feb-16 21:30N 33°39' W 118°09'0 0.0
2018-Feb-16 21:00N 33°39' W 118°09'1 2.6
2018-Feb-16 20:30N 33°41' W 118°09'0 0.8
2018-Feb-16 20:00N 33°41' W 118°10'0 0.6
2018-Feb-16 19:29N 33°41' W 118°10'0 0.0
2018-Feb-16 19:00N 33°41' W 118°10'3 5.3
2018-Feb-16 18:29N 33°44' W 118°09'3 5.6
2018-Feb-16 18:00N 33°46' W 118°12'0 0.0
2018-Feb-16 00:36N 33°46' W 118°12'0 3.1
2018-Feb-16 00:30N 33°45' W 118°12'4 7.0
2018-Feb-16 00:00N 33°42' W 118°09'1 1.8
2018-Feb-15 23:30N 33°42' W 118°09'0 0.1
2018-Feb-15 23:00N 33°42' W 118°09'0 0.0
2018-Feb-15 22:30N 33°42' W 118°09'3 6.9
2018-Feb-15 22:00N 33°39' W 118°11'1 1.5
2018-Feb-15 21:30N 33°39' W 118°12'0 0.3
2018-Feb-15 21:00N 33°40' W 118°12'2 4.5
2018-Feb-15 20:29N 33°41' W 118°10'0 0.0
2018-Feb-15 19:44N 33°41' W 118°10'0 0.0
2018-Feb-15 19:09N 33°41' W 118°10'1 7.6
2018-Feb-15 19:00N 33°42' W 118°09'1 2.9
2018-Feb-15 18:30N 33°44' W 118°09'3 7.0
2018-Feb-15 18:00N 33°46' W 118°12'0 0.0
2018-Feb-15 00:35N 33°46' W 118°12'0 3.3
2018-Feb-15 00:29N 33°45' W 118°12'4 8.1
2018-Feb-15 00:00N 33°43' W 118°08'4 7.5
2018-Feb-14 23:30N 33°40' W 118°06'0 0.0
2018-Feb-14 23:00N 33°40' W 118°06'0 0.0
2018-Feb-14 22:30N 33°40' W 118°06'0 0.0
2018-Feb-14 21:57N 33°40' W 118°06'1 1.3
2018-Feb-14 21:25N 33°39' W 118°06'0 0.2
2018-Feb-14 21:00N 33°39' W 118°06'0 0.0
2018-Feb-14 20:30N 33°39' W 118°06'2 3.1
2018-Feb-14 20:01N 33°40' W 118°07'1 1.2
2018-Feb-14 19:30N 33°41' W 118°07'2 3.2
2018-Feb-14 19:00N 33°42' W 118°08'2 4.2
2018-Feb-14 18:30N 33°44' W 118°09'3 5.0
2018-Feb-14 17:58N 33°46' W 118°12'0 0.0
2018-Feb-14 17:30N 33°46' W 118°12'0 0.0
2018-Feb-13 17:50N 33°46' W 118°12'2 6.0
2018-Feb-13 17:31N 33°44' W 118°11'4 7.7
2018-Feb-13 17:00N 33°43' W 118°16'1 1.6
2018-Feb-13 16:30N 33°44' W 118°16'2 4.8
2018-Feb-13 16:00N 33°43' W 118°14'3 5.3
2018-Feb-13 15:26N 33°46' W 118°12'0 0.0
2018-Feb-12 21:10N 33°46' W 118°12'0 0.0
2018-Feb-12 21:00N 33°46' W 118°12'0 0.0
2018-Feb-12 20:00N 33°46' W 118°12'0 0.0
2018-Feb-12 19:14N 33°46' W 118°12'0 0.0
2018-Feb-12 19:00N 33°46' W 118°12'0 0.0
2018-Feb-12 18:26N 33°46' W 118°12'0 0.0
2018-Feb-12 18:00N 33°46' W 118°12'0 0.0
2018-Feb-12 17:30N 33°46' W 118°12'0 0.0
2018-Feb-12 17:00N 33°46' W 118°12'0 0.0
2018-Feb-12 16:30N 33°46' W 118°12'0 0.0
2018-Feb-12 16:00N 33°46' W 118°12'0 0.0
2018-Feb-12 15:30N 33°46' W 118°12'0 0.0
2018-Feb-12 15:00N 33°46' W 118°12'0 0.0
2018-Feb-12 14:29N 33°46' W 118°12'0 0.0
2018-Feb-12 14:00N 33°46' W 118°12'0 0.0
2018-Feb-12 13:30N 33°46' W 118°12'0 0.0
2018-Feb-12 12:47N 33°46' W 118°12'0 0.0
2018-Feb-12 12:30N 33°46' W 118°12'0 0.0
2018-Feb-12 11:47N 33°46' W 118°12'0 0.0
2018-Feb-12 11:26N 33°46' W 118°12'0 0.0
2018-Feb-12 10:56N 33°46' W 118°12'0 0.0
2018-Feb-12 07:49N 33°46' W 118°12'0 0.0
2018-Feb-12 01:44N 33°46' W 118°12'0 0.0
2018-Feb-12 01:30N 33°46' W 118°12'0 0.0
2018-Feb-12 01:00N 33°46' W 118°12'0 0.0
2018-Feb-12 00:30N 33°46' W 118°12'0 0.0
2018-Feb-11 23:59N 33°46' W 118°12'  

Dump ship's entire track history